Thursday, April 24, 2014, 6:00 PM EDT

KGED, Georgetown Sussex Co Airport

Location: Georgetown, DE, United States Lat: 38.683
Local Time: 6:00 PM EDT (22:00 GMT) Lon: -75.367
Time Zone: US/Eastern Elev: 52 ft

Show me the last for .
Show Decoded

2014-04-24 16:54 METAR KGED 242054Z AUTO 29008G17KT 270V330 10SM CLR 17/M07 A2999 RMK AO2 SLP154
                 T01671067 56010 =
2014-04-24 15:54 METAR KGED 241954Z AUTO 34010G16KT 10SM CLR 17/M07 A2999 RMK AO2 SLP154
                 T01671067 =
2014-04-24 14:54 METAR KGED 241854Z AUTO 33011G16KT 10SM CLR 16/M08 A3000 RMK AO2 SLP159
                 T01611078 =
2014-04-24 13:54 METAR KGED 241754Z AUTO 29011G17KT 10SM CLR 16/M08 A3002 RMK AO2 SLP165
                 T01561078 10161 20089 58015 =
2014-04-24 12:54 METAR KGED 241654Z AUTO 35009KT 10SM CLR 15/M08 A3003 RMK AO2 SLP169 T01501078 =
2014-04-24 11:54 METAR KGED 241554Z AUTO 34009G20KT 10SM CLR 14/M10 A3005 RMK AO2 SLP176
                 T01391100 =
2014-04-24 10:54 METAR KGED 241454Z AUTO 30011G16KT 270V330 10SM CLR 12/M08 A3006 RMK AO2 SLP179
                 T01221083 50004 =
2014-04-24 09:54 METAR KGED 241354Z AUTO 31010G16KT 280V350 10SM CLR 12/M06 A3006 RMK AO2 SLP180
                 T01171061 =
2014-04-24 08:54 METAR KGED 241254Z AUTO 33010G18KT 300V010 10SM CLR 10/M06 A3006 RMK AO2 SLP178
                 T01001061 =
2014-04-24 07:54 METAR KGED 241154Z AUTO VRB06G14KT 10SM CLR 09/M03 A3005 RMK AO2 SLP176
                 T00891033 10089 20056 51021 =
2014-04-24 06:54 METAR KGED 241054Z AUTO 32004KT 10SM CLR 07/M02 A3004 RMK AO2 SLP172 T00671022 =
2014-04-24 05:54 METAR KGED 240954Z AUTO 29004KT 10SM CLR 06/M02 A3001 RMK AO2 SLP162 T00561017 =
2014-04-24 04:54 METAR KGED 240854Z AUTO 29004KT 10SM CLR 06/M02 A2999 RMK AO2 SLP155 T00611017
                 53010 =
2014-04-24 03:54 METAR KGED 240754Z AUTO 27003KT 10SM CLR 06/M01 A2997 RMK AO2 SLP149 T00611011 =
2014-04-24 02:54 METAR KGED 240654Z AUTO 30003KT 10SM CLR 07/M01 A2996 RMK AO2 SLP146 T00671011 =
2014-04-24 01:54 METAR KGED 240554Z AUTO 00000KT 10SM CLR 08/M02 A2996 RMK AO2 SLP145 T00781017
                 10133 20078 51010 =
2014-04-24 00:54 METAR KGED 240454Z AUTO VRB06KT 10SM CLR 08/M02 A2995 RMK AO2 SLP143 T00831017
                 401610083 =
2014-04-23 23:54 METAR KGED 240354Z AUTO 32009G17KT 10SM CLR 09/M02 A2994 RMK AO2 SLP139
                 T00891017 =
2014-04-23 22:54 METAR KGED 240254Z AUTO 32011G21KT 10SM CLR 10/M01 A2993 RMK AO2 SLP135
                 T01001006 51040 =
2014-04-23 21:54 METAR KGED 240154Z AUTO 33008G21KT 10SM FEW049 12/01 A2989 RMK AO2 SLP122
                 T01170006 =
2014-04-23 20:54 METAR KGED 240054Z AUTO 31009G18KT 270V340 10SM CLR 12/02 A2985 RMK AO2 SLP106
                 T01220017 =
2014-04-23 19:54 METAR KGED 232354Z AUTO 30009G17KT 10SM CLR 13/02 A2981 RMK AO2 SLP094 T01330022
                 10161 20133 53020 =
2014-04-23 18:54 METAR KGED 232254Z AUTO 29014G22KT 10SM FEW055 14/02 A2979 RMK AO2 SLP087
                 T01440022 =

Support USWX by starting your Amazon purchase here.